sensor_id;sensor_type;location;lat;lon;timestamp;P1;durP1;ratioP1;P2;durP2;ratioP2
11620;SDS011;5866;49.094;11.900;2022-08-01T00:00:45;12.40;;;11.48;;
11620;SDS011;5866;49.094;11.900;2022-08-01T00:03:14;11.13;;;10.50;;
11620;SDS011;5866;49.094;11.900;2022-08-01T00:05:41;10.63;;;10.02;;
11620;SDS011;5866;49.094;11.900;2022-08-01T00:08:10;9.88;;;9.35;;
11620;SDS011;5866;49.094;11.900;2022-08-01T00:10:38;10.13;;;9.57;;
11620;SDS011;5866;49.094;11.900;2022-08-01T00:13:05;7.28;;;6.88;;
11620;SDS011;5866;49.094;11.900;2022-08-01T00:15:35;13.18;;;12.27;;
11620;SDS011;5866;49.094;11.900;2022-08-01T00:18:03;11.52;;;10.82;;
11620;SDS011;5866;49.094;11.900;2022-08-01T00:20:32;12.40;;;11.73;;
11620;SDS011;5866;49.094;11.900;2022-08-01T00:23:01;12.63;;;11.82;;
11620;SDS011;5866;49.094;11.900;2022-08-01T00:25:30;12.15;;;11.35;;
11620;SDS011;5866;49.094;11.900;2022-08-01T00:27:59;11.00;;;10.30;;
11620;SDS011;5866;49.094;11.900;2022-08-01T00:30:27;11.57;;;10.70;;
11620;SDS011;5866;49.094;11.900;2022-08-01T00:32:54;11.65;;;11.05;;
11620;SDS011;5866;49.094;11.900;2022-08-01T00:35:22;11.23;;;10.55;;
11620;SDS011;5866;49.094;11.900;2022-08-01T00:37:50;8.90;;;8.30;;
11620;SDS011;5866;49.094;11.900;2022-08-01T00:40:18;9.13;;;8.63;;
11620;SDS011;5866;49.094;11.900;2022-08-01T00:42:46;9.60;;;9.00;;
11620;SDS011;5866;49.094;11.900;2022-08-01T00:45:13;11.55;;;10.85;;
11620;SDS011;5866;49.094;11.900;2022-08-01T00:47:41;11.25;;;10.65;;
11620;SDS011;5866;49.094;11.900;2022-08-01T00:50:09;13.63;;;12.90;;
11620;SDS011;5866;49.094;11.900;2022-08-01T00:52:38;10.85;;;10.25;;
11620;SDS011;5866;49.094;11.900;2022-08-01T00:55:08;12.05;;;11.27;;
11620;SDS011;5866;49.094;11.900;2022-08-01T00:57:40;10.63;;;9.93;;
11620;SDS011;5866;49.094;11.900;2022-08-01T01:00:27;10.07;;;9.48;;
11620;SDS011;5866;49.094;11.900;2022-08-01T01:02:57;10.23;;;9.70;;
11620;SDS011;5866;49.094;11.900;2022-08-01T01:05:25;9.20;;;8.70;;
11620;SDS011;5866;49.094;11.900;2022-08-01T01:07:53;10.95;;;10.25;;
11620;SDS011;5866;49.094;11.900;2022-08-01T01:10:28;10.35;;;9.75;;
11620;SDS011;5866;49.094;11.900;2022-08-01T01:13:04;10.73;;;10.13;;
11620;SDS011;5866;49.094;11.900;2022-08-01T01:15:36;11.02;;;10.38;;
11620;SDS011;5866;49.094;11.900;2022-08-01T01:18:09;10.20;;;9.60;;
11620;SDS011;5866;49.094;11.900;2022-08-01T01:20:40;10.60;;;9.95;;
11620;SDS011;5866;49.094;11.900;2022-08-01T01:23:15;11.68;;;10.85;;
11620;SDS011;5866;49.094;11.900;2022-08-01T01:26:01;8.15;;;7.65;;
11620;SDS011;5866;49.094;11.900;2022-08-01T01:31:28;8.93;;;8.43;;
11620;SDS011;5866;49.094;11.900;2022-08-01T01:33:59;9.15;;;8.63;;
11620;SDS011;5866;49.094;11.900;2022-08-01T01:36:28;10.10;;;9.40;;
11620;SDS011;5866;49.094;11.900;2022-08-01T01:38:58;12.50;;;11.80;;
11620;SDS011;5866;49.094;11.900;2022-08-01T01:41:27;10.55;;;9.80;;
11620;SDS011;5866;49.094;11.900;2022-08-01T01:43:57;12.05;;;11.35;;
11620;SDS011;5866;49.094;11.900;2022-08-01T01:46:28;10.13;;;9.55;;
11620;SDS011;5866;49.094;11.900;2022-08-01T01:48:58;10.38;;;9.80;;
11620;SDS011;5866;49.094;11.900;2022-08-01T01:51:27;11.07;;;10.48;;
11620;SDS011;5866;49.094;11.900;2022-08-01T01:53:56;10.85;;;10.25;;
11620;SDS011;5866;49.094;11.900;2022-08-01T01:56:26;10.73;;;9.98;;
11620;SDS011;5866;49.094;11.900;2022-08-01T01:58:57;11.10;;;10.40;;
11620;SDS011;5866;49.094;11.900;2022-08-01T02:01:29;11.60;;;11.00;;
11620;SDS011;5866;49.094;11.900;2022-08-01T02:04:19;11.32;;;10.73;;
11620;SDS011;5866;49.094;11.900;2022-08-01T02:06:50;9.98;;;9.38;;
11620;SDS011;5866;49.094;11.900;2022-08-01T02:09:20;7.85;;;7.35;;
11620;SDS011;5866;49.094;11.900;2022-08-01T02:11:48;11.48;;;10.88;;
11620;SDS011;5866;49.094;11.900;2022-08-01T02:14:34;8.50;;;8.00;;
11620;SDS011;5866;49.094;11.900;2022-08-01T02:17:04;8.88;;;8.27;;
11620;SDS011;5866;49.094;11.900;2022-08-01T02:19:32;8.70;;;8.20;;
11620;SDS011;5866;49.094;11.900;2022-08-01T02:22:04;13.38;;;12.55;;
11620;SDS011;5866;49.094;11.900;2022-08-01T02:24:35;9.73;;;9.18;;
11620;SDS011;5866;49.094;11.900;2022-08-01T02:27:06;7.53;;;7.03;;
11620;SDS011;5866;49.094;11.900;2022-08-01T02:29:37;9.07;;;8.57;;
11620;SDS011;5866;49.094;11.900;2022-08-01T02:32:08;7.10;;;6.60;;
11620;SDS011;5866;49.094;11.900;2022-08-01T02:34:40;6.97;;;6.47;;
11620;SDS011;5866;49.094;11.900;2022-08-01T02:37:11;8.05;;;7.60;;
11620;SDS011;5866;49.094;11.900;2022-08-01T02:39:38;6.25;;;5.88;;
11620;SDS011;5866;49.094;11.900;2022-08-01T02:42:07;6.07;;;5.68;;
11620;SDS011;5866;49.094;11.900;2022-08-01T02:44:39;6.25;;;5.93;;
11620;SDS011;5866;49.094;11.900;2022-08-01T02:47:11;8.07;;;7.68;;
11620;SDS011;5866;49.094;11.900;2022-08-01T02:49:41;8.60;;;8.15;;
11620;SDS011;5866;49.094;11.900;2022-08-01T02:52:12;5.45;;;5.05;;
11620;SDS011;5866;49.094;11.900;2022-08-01T02:54:41;5.90;;;5.50;;
11620;SDS011;5866;49.094;11.900;2022-08-01T02:57:11;6.72;;;6.32;;
11620;SDS011;5866;49.094;11.900;2022-08-01T02:59:44;7.03;;;6.53;;
11620;SDS011;5866;49.094;11.900;2022-08-01T03:02:15;8.77;;;8.27;;
11620;SDS011;5866;49.094;11.900;2022-08-01T03:04:44;6.28;;;5.88;;
11620;SDS011;5866;49.094;11.900;2022-08-01T03:07:13;9.00;;;8.25;;
11620;SDS011;5866;49.094;11.900;2022-08-01T03:09:45;5.38;;;5.07;;
11620;SDS011;5866;49.094;11.900;2022-08-01T03:12:14;9.15;;;8.65;;
11620;SDS011;5866;49.094;11.900;2022-08-01T03:14:45;9.13;;;8.63;;
11620;SDS011;5866;49.094;11.900;2022-08-01T03:17:17;8.32;;;7.82;;
11620;SDS011;5866;49.094;11.900;2022-08-01T03:19:47;5.32;;;5.03;;
11620;SDS011;5866;49.094;11.900;2022-08-01T03:22:16;6.40;;;6.00;;
11620;SDS011;5866;49.094;11.900;2022-08-01T03:24:45;6.03;;;5.63;;
11620;SDS011;5866;49.094;11.900;2022-08-01T03:27:17;5.03;;;4.72;;
11620;SDS011;5866;49.094;11.900;2022-08-01T03:29:46;6.30;;;5.82;;
11620;SDS011;5866;49.094;11.900;2022-08-01T03:32:15;4.68;;;4.38;;
11620;SDS011;5866;49.094;11.900;2022-08-01T03:34:46;6.05;;;5.65;;
11620;SDS011;5866;49.094;11.900;2022-08-01T03:37:16;5.65;;;5.25;;
11620;SDS011;5866;49.094;11.900;2022-08-01T03:39:49;5.50;;;5.13;;
11620;SDS011;5866;49.094;11.900;2022-08-01T03:42:20;5.28;;;4.88;;
11620;SDS011;5866;49.094;11.900;2022-08-01T03:44:52;5.88;;;5.50;;
11620;SDS011;5866;49.094;11.900;2022-08-01T03:47:24;5.00;;;4.70;;
11620;SDS011;5866;49.094;11.900;2022-08-01T03:49:56;6.63;;;6.15;;
11620;SDS011;5866;49.094;11.900;2022-08-01T03:52:25;6.10;;;5.60;;
11620;SDS011;5866;49.094;11.900;2022-08-01T03:54:56;6.72;;;6.32;;
11620;SDS011;5866;49.094;11.900;2022-08-01T03:57:27;7.18;;;6.75;;
11620;SDS011;5866;49.094;11.900;2022-08-01T04:00:02;6.55;;;5.80;;
11620;SDS011;5866;49.094;11.900;2022-08-01T04:02:34;6.72;;;6.32;;
11620;SDS011;5866;49.094;11.900;2022-08-01T04:05:02;5.97;;;5.57;;
11620;SDS011;5866;49.094;11.900;2022-08-01T04:07:31;5.72;;;5.13;;
11620;SDS011;5866;49.094;11.900;2022-08-01T04:10:01;6.38;;;5.88;;
11620;SDS011;5866;49.094;11.900;2022-08-01T04:12:30;10.55;;;9.82;;
11620;SDS011;5866;49.094;11.900;2022-08-01T04:14:58;8.77;;;8.02;;
11620;SDS011;5866;49.094;11.900;2022-08-01T04:17:26;8.43;;;7.93;;
11620;SDS011;5866;49.094;11.900;2022-08-01T04:19:55;8.25;;;7.75;;
11620;SDS011;5866;49.094;11.900;2022-08-01T04:22:22;7.47;;;7.03;;
11620;SDS011;5866;49.094;11.900;2022-08-01T04:24:50;11.02;;;10.23;;
11620;SDS011;5866;49.094;11.900;2022-08-01T04:27:23;10.20;;;9.50;;
11620;SDS011;5866;49.094;11.900;2022-08-01T04:30:15;11.27;;;10.57;;
11620;SDS011;5866;49.094;11.900;2022-08-01T04:32:46;10.25;;;9.68;;
11620;SDS011;5866;49.094;11.900;2022-08-01T04:35:17;11.18;;;10.48;;
11620;SDS011;5866;49.094;11.900;2022-08-01T04:38:07;12.45;;;11.73;;
11620;SDS011;5866;49.094;11.900;2022-08-01T04:40:36;7.30;;;6.80;;
11620;SDS011;5866;49.094;11.900;2022-08-01T04:43:04;7.00;;;6.60;;
11620;SDS011;5866;49.094;11.900;2022-08-01T04:45:32;8.48;;;7.97;;
11620;SDS011;5866;49.094;11.900;2022-08-01T04:48:01;5.53;;;5.15;;
11620;SDS011;5866;49.094;11.900;2022-08-01T04:50:33;8.50;;;7.90;;
11620;SDS011;5866;49.094;11.900;2022-08-01T04:53:02;9.95;;;9.35;;
11620;SDS011;5866;49.094;11.900;2022-08-01T04:55:30;7.20;;;6.70;;
11620;SDS011;5866;49.094;11.900;2022-08-01T04:57:58;12.43;;;11.73;;
11620;SDS011;5866;49.094;11.900;2022-08-01T05:00:26;12.90;;;12.20;;
11620;SDS011;5866;49.094;11.900;2022-08-01T05:02:56;10.70;;;10.05;;
11620;SDS011;5866;49.094;11.900;2022-08-01T05:05:23;10.90;;;10.30;;
11620;SDS011;5866;49.094;11.900;2022-08-01T05:07:53;6.70;;;6.30;;
11620;SDS011;5866;49.094;11.900;2022-08-01T05:10:21;10.25;;;9.60;;
11620;SDS011;5866;49.094;11.900;2022-08-01T05:12:49;10.07;;;9.52;;
11620;SDS011;5866;49.094;11.900;2022-08-01T05:15:16;11.82;;;11.13;;
11620;SDS011;5866;49.094;11.900;2022-08-01T05:17:44;11.43;;;10.73;;
11620;SDS011;5866;49.094;11.900;2022-08-01T05:20:12;13.52;;;12.68;;
11620;SDS011;5866;49.094;11.900;2022-08-01T05:22:40;8.50;;;7.95;;
11620;SDS011;5866;49.094;11.900;2022-08-01T05:25:10;14.90;;;13.52;;
11620;SDS011;5866;49.094;11.900;2022-08-01T05:27:45;12.88;;;12.18;;
11620;SDS011;5866;49.094;11.900;2022-08-01T05:30:14;8.73;;;8.18;;
11620;SDS011;5866;49.094;11.900;2022-08-01T05:32:41;13.05;;;12.15;;
11620;SDS011;5866;49.094;11.900;2022-08-01T05:35:09;7.82;;;7.32;;
11620;SDS011;5866;49.094;11.900;2022-08-01T05:37:37;11.45;;;10.75;;
11620;SDS011;5866;49.094;11.900;2022-08-01T05:40:05;10.00;;;9.38;;
11620;SDS011;5866;49.094;11.900;2022-08-01T05:42:34;12.82;;;12.13;;
11620;SDS011;5866;49.094;11.900;2022-08-01T05:45:02;12.82;;;12.13;;
11620;SDS011;5866;49.094;11.900;2022-08-01T05:47:30;8.80;;;8.18;;
11620;SDS011;5866;49.094;11.900;2022-08-01T05:49:57;12.40;;;11.60;;
11620;SDS011;5866;49.094;11.900;2022-08-01T05:52:25;9.75;;;9.15;;
11620;SDS011;5866;49.094;11.900;2022-08-01T05:54:52;11.02;;;10.43;;
11620;SDS011;5866;49.094;11.900;2022-08-01T05:57:20;10.07;;;9.48;;
11620;SDS011;5866;49.094;11.900;2022-08-01T05:59:49;8.40;;;7.90;;
11620;SDS011;5866;49.094;11.900;2022-08-01T06:02:16;8.98;;;8.38;;
11620;SDS011;5866;49.094;11.900;2022-08-01T06:04:44;7.82;;;7.32;;
11620;SDS011;5866;49.094;11.900;2022-08-01T06:07:11;7.90;;;7.40;;
11620;SDS011;5866;49.094;11.900;2022-08-01T06:09:39;6.63;;;6.22;;
11620;SDS011;5866;49.094;11.900;2022-08-01T06:12:06;8.00;;;7.50;;
11620;SDS011;5866;49.094;11.900;2022-08-01T06:14:34;7.20;;;6.80;;
11620;SDS011;5866;49.094;11.900;2022-08-01T06:17:03;7.22;;;6.82;;
11620;SDS011;5866;49.094;11.900;2022-08-01T06:19:31;6.75;;;6.35;;
11620;SDS011;5866;49.094;11.900;2022-08-01T06:21:58;7.07;;;6.68;;
11620;SDS011;5866;49.094;11.900;2022-08-01T06:24:26;5.68;;;5.28;;
11620;SDS011;5866;49.094;11.900;2022-08-01T06:26:53;7.03;;;6.63;;
11620;SDS011;5866;49.094;11.900;2022-08-01T06:29:21;5.50;;;5.15;;
11620;SDS011;5866;49.094;11.900;2022-08-01T06:31:48;6.20;;;5.70;;
11620;SDS011;5866;49.094;11.900;2022-08-01T06:34:17;5.68;;;5.28;;
11620;SDS011;5866;49.094;11.900;2022-08-01T06:36:45;5.40;;;4.72;;
11620;SDS011;5866;49.094;11.900;2022-08-01T06:39:12;5.97;;;5.68;;
11620;SDS011;5866;49.094;11.900;2022-08-01T06:41:40;6.35;;;5.43;;
11620;SDS011;5866;49.094;11.900;2022-08-01T06:44:08;6.50;;;6.10;;
11620;SDS011;5866;49.094;11.900;2022-08-01T06:46:35;6.90;;;6.50;;
11620;SDS011;5866;49.094;11.900;2022-08-01T06:49:03;6.68;;;6.25;;
11620;SDS011;5866;49.094;11.900;2022-08-01T06:51:32;3.75;;;3.55;;
11620;SDS011;5866;49.094;11.900;2022-08-01T06:53:59;7.25;;;6.75;;
11620;SDS011;5866;49.094;11.900;2022-08-01T06:56:27;7.70;;;7.25;;
11620;SDS011;5866;49.094;11.900;2022-08-01T06:58:55;7.15;;;6.75;;
11620;SDS011;5866;49.094;11.900;2022-08-01T07:01:26;7.72;;;7.25;;
11620;SDS011;5866;49.094;11.900;2022-08-01T07:03:54;7.47;;;6.95;;
11620;SDS011;5866;49.094;11.900;2022-08-01T07:06:22;10.48;;;9.95;;
11620;SDS011;5866;49.094;11.900;2022-08-01T07:08:52;10.27;;;9.48;;
11620;SDS011;5866;49.094;11.900;2022-08-01T07:11:20;9.25;;;8.70;;
11620;SDS011;5866;49.094;11.900;2022-08-01T07:13:49;5.75;;;5.40;;
11620;SDS011;5866;49.094;11.900;2022-08-01T07:16:17;5.40;;;5.10;;
11620;SDS011;5866;49.094;11.900;2022-08-01T07:18:44;5.30;;;4.95;;
11620;SDS011;5866;49.094;11.900;2022-08-01T07:21:12;5.72;;;5.43;;
11620;SDS011;5866;49.094;11.900;2022-08-01T07:24:01;9.40;;;8.70;;
11620;SDS011;5866;49.094;11.900;2022-08-01T07:26:39;5.60;;;5.30;;
11620;SDS011;5866;49.094;11.900;2022-08-01T07:29:19;10.68;;;9.98;;
11620;SDS011;5866;49.094;11.900;2022-08-01T07:31:48;6.75;;;6.25;;
11620;SDS011;5866;49.094;11.900;2022-08-01T07:34:15;6.03;;;5.68;;
11620;SDS011;5866;49.094;11.900;2022-08-01T07:36:44;8.82;;;8.32;;
11620;SDS011;5866;49.094;11.900;2022-08-01T07:39:12;4.32;;;4.03;;
11620;SDS011;5866;49.094;11.900;2022-08-01T07:41:40;4.55;;;4.25;;
11620;SDS011;5866;49.094;11.900;2022-08-01T07:44:27;4.28;;;3.42;;
11620;SDS011;5866;49.094;11.900;2022-08-01T07:46:55;6.18;;;5.88;;
11620;SDS011;5866;49.094;11.900;2022-08-01T07:49:22;4.57;;;4.28;;
11620;SDS011;5866;49.094;11.900;2022-08-01T07:51:50;5.20;;;4.80;;
11620;SDS011;5866;49.094;11.900;2022-08-01T07:54:30;8.98;;;8.20;;
11620;SDS011;5866;49.094;11.900;2022-08-01T07:57:00;6.22;;;5.82;;
11620;SDS011;5866;49.094;11.900;2022-08-01T07:59:27;7.65;;;7.25;;
11620;SDS011;5866;49.094;11.900;2022-08-01T08:01:55;5.03;;;4.68;;
11620;SDS011;5866;49.094;11.900;2022-08-01T08:04:23;5.53;;;5.05;;
11620;SDS011;5866;49.094;11.900;2022-08-01T08:06:50;5.13;;;4.72;;
11620;SDS011;5866;49.094;11.900;2022-08-01T08:09:19;5.18;;;4.68;;
11620;SDS011;5866;49.094;11.900;2022-08-01T08:11:48;4.93;;;4.63;;
11620;SDS011;5866;49.094;11.900;2022-08-01T08:14:16;5.53;;;5.03;;
11620;SDS011;5866;49.094;11.900;2022-08-01T08:16:44;5.90;;;5.50;;
11620;SDS011;5866;49.094;11.900;2022-08-01T08:19:12;11.80;;;11.00;;
11620;SDS011;5866;49.094;11.900;2022-08-01T08:21:40;4.40;;;3.85;;
11620;SDS011;5866;49.094;11.900;2022-08-01T08:24:08;5.28;;;4.88;;
11620;SDS011;5866;49.094;11.900;2022-08-01T08:26:54;9.23;;;8.73;;
11620;SDS011;5866;49.094;11.900;2022-08-01T08:29:24;9.82;;;9.23;;
11620;SDS011;5866;49.094;11.900;2022-08-01T08:31:53;4.68;;;4.47;;
11620;SDS011;5866;49.094;11.900;2022-08-01T08:34:22;5.03;;;4.68;;
11620;SDS011;5866;49.094;11.900;2022-08-01T08:36:50;7.18;;;6.78;;
11620;SDS011;5866;49.094;11.900;2022-08-01T08:39:19;4.72;;;4.43;;
11620;SDS011;5866;49.094;11.900;2022-08-01T08:41:47;4.15;;;3.60;;
11620;SDS011;5866;49.094;11.900;2022-08-01T08:44:16;4.60;;;4.30;;
11620;SDS011;5866;49.094;11.900;2022-08-01T08:46:46;6.28;;;5.90;;
11620;SDS011;5866;49.094;11.900;2022-08-01T08:49:16;5.43;;;5.13;;
11620;SDS011;5866;49.094;11.900;2022-08-01T08:51:47;7.47;;;6.88;;
11620;SDS011;5866;49.094;11.900;2022-08-01T08:54:16;8.40;;;7.82;;
11620;SDS011;5866;49.094;11.900;2022-08-01T08:56:46;8.13;;;7.72;;
11620;SDS011;5866;49.094;11.900;2022-08-01T08:59:14;8.65;;;5.97;;
11620;SDS011;5866;49.094;11.900;2022-08-01T09:01:43;7.45;;;6.88;;
11620;SDS011;5866;49.094;11.900;2022-08-01T09:04:10;8.40;;;7.90;;
11620;SDS011;5866;49.094;11.900;2022-08-01T09:06:38;9.48;;;8.98;;
11620;SDS011;5866;49.094;11.900;2022-08-01T09:09:07;11.98;;;11.30;;
11620;SDS011;5866;49.094;11.900;2022-08-01T09:11:35;8.82;;;8.35;;
11620;SDS011;5866;49.094;11.900;2022-08-01T09:14:05;5.13;;;4.75;;
11620;SDS011;5866;49.094;11.900;2022-08-01T09:16:36;9.38;;;8.88;;
11620;SDS011;5866;49.094;11.900;2022-08-01T09:19:15;10.20;;;9.65;;
11620;SDS011;5866;49.094;11.900;2022-08-01T09:22:05;4.47;;;4.25;;
11620;SDS011;5866;49.094;11.900;2022-08-01T09:24:35;6.88;;;6.38;;
11620;SDS011;5866;49.094;11.900;2022-08-01T09:27:15;6.00;;;5.60;;
11620;SDS011;5866;49.094;11.900;2022-08-01T09:29:47;4.20;;;4.00;;
11620;SDS011;5866;49.094;11.900;2022-08-01T09:32:27;4.18;;;3.90;;
11620;SDS011;5866;49.094;11.900;2022-08-01T09:38:15;5.38;;;5.07;;
11620;SDS011;5866;49.094;11.900;2022-08-01T09:40:45;5.47;;;4.97;;
11620;SDS011;5866;49.094;11.900;2022-08-01T09:43:17;4.47;;;4.28;;
11620;SDS011;5866;49.094;11.900;2022-08-01T09:45:45;7.65;;;7.25;;
11620;SDS011;5866;49.094;11.900;2022-08-01T09:48:18;10.27;;;9.68;;
11620;SDS011;5866;49.094;11.900;2022-08-01T09:50:54;7.97;;;7.55;;
11620;SDS011;5866;49.094;11.900;2022-08-01T09:53:39;9.32;;;8.82;;
11620;SDS011;5866;49.094;11.900;2022-08-01T09:56:17;7.22;;;6.82;;
11620;SDS011;5866;49.094;11.900;2022-08-01T09:58:48;10.13;;;9.50;;
11620;SDS011;5866;49.094;11.900;2022-08-01T10:01:24;10.75;;;10.15;;
11620;SDS011;5866;49.094;11.900;2022-08-01T10:04:06;11.60;;;11.00;;
11620;SDS011;5866;49.094;11.900;2022-08-01T10:06:38;11.43;;;10.82;;
11620;SDS011;5866;49.094;11.900;2022-08-01T10:09:08;12.80;;;12.15;;
11620;SDS011;5866;49.094;11.900;2022-08-01T10:11:39;8.85;;;8.38;;
11620;SDS011;5866;49.094;11.900;2022-08-01T10:14:10;6.15;;;5.80;;
11620;SDS011;5866;49.094;11.900;2022-08-01T10:16:43;6.18;;;5.72;;
11620;SDS011;5866;49.094;11.900;2022-08-01T10:19:22;9.88;;;9.27;;
11620;SDS011;5866;49.094;11.900;2022-08-01T10:21:56;6.00;;;5.70;;
11620;SDS011;5866;49.094;11.900;2022-08-01T10:24:26;5.10;;;4.78;;
11620;SDS011;5866;49.094;11.900;2022-08-01T10:26:57;4.50;;;4.20;;
11620;SDS011;5866;49.094;11.900;2022-08-01T10:29:35;2.67;;;2.47;;
11620;SDS011;5866;49.094;11.900;2022-08-01T10:32:27;3.65;;;2.83;;
11620;SDS011;5866;49.094;11.900;2022-08-01T10:34:55;3.40;;;2.67;;
11620;SDS011;5866;49.094;11.900;2022-08-01T10:37:25;3.63;;;3.33;;
11620;SDS011;5866;49.094;11.900;2022-08-01T10:39:53;6.72;;;6.38;;
11620;SDS011;5866;49.094;11.900;2022-08-01T10:42:42;7.90;;;7.50;;
11620;SDS011;5866;49.094;11.900;2022-08-01T10:45:12;5.47;;;5.18;;
11620;SDS011;5866;49.094;11.900;2022-08-01T10:47:42;4.57;;;4.38;;
11620;SDS011;5866;49.094;11.900;2022-08-01T10:50:17;6.13;;;5.72;;
11620;SDS011;5866;49.094;11.900;2022-08-01T10:53:07;4.78;;;4.47;;
11620;SDS011;5866;49.094;11.900;2022-08-01T10:55:48;2.72;;;2.63;;
11620;SDS011;5866;49.094;11.900;2022-08-01T10:58:23;5.30;;;5.00;;
11620;SDS011;5866;49.094;11.900;2022-08-01T11:03:55;3.70;;;3.50;;
11620;SDS011;5866;49.094;11.900;2022-08-01T11:06:28;3.22;;;3.03;;
11620;SDS011;5866;49.094;11.900;2022-08-01T11:09:15;3.05;;;2.90;;
11620;SDS011;5866;49.094;11.900;2022-08-01T11:12:03;2.67;;;2.58;;
11620;SDS011;5866;49.094;11.900;2022-08-01T11:17:56;4.20;;;3.88;;
11620;SDS011;5866;49.094;11.900;2022-08-01T11:20:27;4.05;;;3.72;;
11620;SDS011;5866;49.094;11.900;2022-08-01T11:26:08;2.97;;;2.88;;
11620;SDS011;5866;49.094;11.900;2022-08-01T11:28:43;2.78;;;2.58;;
11620;SDS011;5866;49.094;11.900;2022-08-01T11:31:32;3.33;;;3.03;;
11620;SDS011;5866;49.094;11.900;2022-08-01T11:34:03;2.83;;;2.20;;
11620;SDS011;5866;49.094;11.900;2022-08-01T11:36:31;2.67;;;2.05;;
11620;SDS011;5866;49.094;11.900;2022-08-01T11:39:19;7.20;;;6.78;;
11620;SDS011;5866;49.094;11.900;2022-08-01T11:41:48;3.35;;;3.05;;
11620;SDS011;5866;49.094;11.900;2022-08-01T11:44:19;5.80;;;5.50;;
11620;SDS011;5866;49.094;11.900;2022-08-01T11:46:58;4.45;;;4.25;;
11620;SDS011;5866;49.094;11.900;2022-08-01T11:49:45;3.65;;;3.45;;
11620;SDS011;5866;49.094;11.900;2022-08-01T11:52:17;2.80;;;2.70;;
11620;SDS011;5866;49.094;11.900;2022-08-01T11:54:47;3.28;;;3.05;;
11620;SDS011;5866;49.094;11.900;2022-08-01T11:57:19;4.35;;;4.05;;
11620;SDS011;5866;49.094;11.900;2022-08-01T11:59:49;2.47;;;2.28;;
11620;SDS011;5866;49.094;11.900;2022-08-01T12:02:29;3.25;;;2.85;;
11620;SDS011;5866;49.094;11.900;2022-08-01T12:05:01;2.20;;;2.10;;
11620;SDS011;5866;49.094;11.900;2022-08-01T12:07:31;2.40;;;2.20;;
11620;SDS011;5866;49.094;11.900;2022-08-01T12:10:00;3.90;;;3.60;;
11620;SDS011;5866;49.094;11.900;2022-08-01T12:12:32;2.65;;;2.55;;
11620;SDS011;5866;49.094;11.900;2022-08-01T12:15:01;2.90;;;2.70;;
11620;SDS011;5866;49.094;11.900;2022-08-01T12:17:35;3.88;;;3.67;;
11620;SDS011;5866;49.094;11.900;2022-08-01T12:20:05;4.82;;;4.53;;
11620;SDS011;5866;49.094;11.900;2022-08-01T12:22:34;5.07;;;4.18;;
11620;SDS011;5866;49.094;11.900;2022-08-01T12:25:06;3.75;;;3.25;;
11620;SDS011;5866;49.094;11.900;2022-08-01T12:27:36;3.50;;;3.20;;
11620;SDS011;5866;49.094;11.900;2022-08-01T12:30:05;3.47;;;3.17;;
11620;SDS011;5866;49.094;11.900;2022-08-01T12:32:35;2.85;;;2.75;;
11620;SDS011;5866;49.094;11.900;2022-08-01T12:35:05;4.78;;;4.47;;
11620;SDS011;5866;49.094;11.900;2022-08-01T12:37:34;3.20;;;3.00;;
11620;SDS011;5866;49.094;11.900;2022-08-01T12:40:09;3.20;;;3.00;;
11620;SDS011;5866;49.094;11.900;2022-08-01T12:42:38;5.00;;;2.38;;
11620;SDS011;5866;49.094;11.900;2022-08-01T12:45:08;3.22;;;3.03;;
11620;SDS011;5866;49.094;11.900;2022-08-01T12:47:37;6.07;;;5.78;;
11620;SDS011;5866;49.094;11.900;2022-08-01T12:50:06;5.35;;;5.05;;
11620;SDS011;5866;49.094;11.900;2022-08-01T12:52:37;6.82;;;6.45;;
11620;SDS011;5866;49.094;11.900;2022-08-01T12:55:06;10.27;;;9.68;;
11620;SDS011;5866;49.094;11.900;2022-08-01T12:57:37;9.27;;;8.77;;
11620;SDS011;5866;49.094;11.900;2022-08-01T13:00:11;14.23;;;13.43;;
11620;SDS011;5866;49.094;11.900;2022-08-01T13:02:42;7.88;;;7.47;;
11620;SDS011;5866;49.094;11.900;2022-08-01T13:05:11;4.68;;;4.43;;
11620;SDS011;5866;49.094;11.900;2022-08-01T13:07:44;3.22;;;3.03;;
11620;SDS011;5866;49.094;11.900;2022-08-01T13:10:14;5.43;;;5.13;;
11620;SDS011;5866;49.094;11.900;2022-08-01T13:12:52;6.03;;;5.70;;
11620;SDS011;5866;49.094;11.900;2022-08-01T13:15:30;12.18;;;11.57;;
11620;SDS011;5866;49.094;11.900;2022-08-01T13:18:00;7.82;;;7.43;;
11620;SDS011;5866;49.094;11.900;2022-08-01T13:20:30;4.78;;;4.57;;
11620;SDS011;5866;49.094;11.900;2022-08-01T13:23:11;5.00;;;4.78;;
11620;SDS011;5866;49.094;11.900;2022-08-01T13:26:00;9.20;;;8.60;;
11620;SDS011;5866;49.094;11.900;2022-08-01T13:28:29;8.68;;;8.27;;
11620;SDS011;5866;49.094;11.900;2022-08-01T13:30:58;7.15;;;6.75;;
11620;SDS011;5866;49.094;11.900;2022-08-01T13:33:27;4.07;;;3.88;;
11620;SDS011;5866;49.094;11.900;2022-08-01T13:36:07;11.07;;;10.35;;
11620;SDS011;5866;49.094;11.900;2022-08-01T13:38:35;5.88;;;5.50;;
11620;SDS011;5866;49.094;11.900;2022-08-01T13:41:20;5.45;;;5.15;;
11620;SDS011;5866;49.094;11.900;2022-08-01T13:43:49;4.25;;;4.05;;
11620;SDS011;5866;49.094;11.900;2022-08-01T13:46:24;5.40;;;5.10;;
11620;SDS011;5866;49.094;11.900;2022-08-01T13:48:54;6.82;;;6.43;;
11620;SDS011;5866;49.094;11.900;2022-08-01T13:51:22;6.63;;;6.18;;
11620;SDS011;5866;49.094;11.900;2022-08-01T13:53:50;3.75;;;3.55;;
11620;SDS011;5866;49.094;11.900;2022-08-01T13:56:17;3.70;;;3.40;;
11620;SDS011;5866;49.094;11.900;2022-08-01T13:58:46;3.80;;;3.60;;
11620;SDS011;5866;49.094;11.900;2022-08-01T14:01:15;5.68;;;5.38;;
11620;SDS011;5866;49.094;11.900;2022-08-01T14:03:43;7.90;;;7.45;;
11620;SDS011;5866;49.094;11.900;2022-08-01T14:06:12;3.22;;;3.03;;
11620;SDS011;5866;49.094;11.900;2022-08-01T14:08:41;8.15;;;7.63;;
11620;SDS011;5866;49.094;11.900;2022-08-01T14:11:12;8.38;;;7.90;;
11620;SDS011;5866;49.094;11.900;2022-08-01T14:13:40;4.55;;;4.25;;
11620;SDS011;5866;49.094;11.900;2022-08-01T14:16:12;2.78;;;2.67;;
11620;SDS011;5866;49.094;11.900;2022-08-01T14:18:41;3.60;;;3.40;;
11620;SDS011;5866;49.094;11.900;2022-08-01T14:21:09;6.35;;;6.05;;
11620;SDS011;5866;49.094;11.900;2022-08-01T14:23:37;2.72;;;2.63;;
11620;SDS011;5866;49.094;11.900;2022-08-01T14:26:05;5.55;;;5.25;;
11620;SDS011;5866;49.094;11.900;2022-08-01T14:28:37;3.47;;;3.28;;
11620;SDS011;5866;49.094;11.900;2022-08-01T14:31:05;2.33;;;2.22;;
11620;SDS011;5866;49.094;11.900;2022-08-01T14:33:33;4.60;;;4.40;;
11620;SDS011;5866;49.094;11.900;2022-08-01T14:36:03;7.57;;;6.97;;
11620;SDS011;5866;49.094;11.900;2022-08-01T14:38:51;5.65;;;5.35;;
11620;SDS011;5866;49.094;11.900;2022-08-01T14:41:18;3.53;;;3.33;;
11620;SDS011;5866;49.094;11.900;2022-08-01T14:43:46;3.92;;;3.72;;
11620;SDS011;5866;49.094;11.900;2022-08-01T14:46:13;6.55;;;6.15;;
11620;SDS011;5866;49.094;11.900;2022-08-01T14:48:41;3.60;;;3.40;;
11620;SDS011;5866;49.094;11.900;2022-08-01T14:51:10;3.33;;;3.15;;
11620;SDS011;5866;49.094;11.900;2022-08-01T14:53:37;2.83;;;2.72;;
11620;SDS011;5866;49.094;11.900;2022-08-01T14:56:12;3.42;;;3.22;;
11620;SDS011;5866;49.094;11.900;2022-08-01T14:58:39;3.25;;;3.15;;
11620;SDS011;5866;49.094;11.900;2022-08-01T15:01:07;3.55;;;3.35;;
11620;SDS011;5866;49.094;11.900;2022-08-01T15:03:35;4.20;;;4.00;;
11620;SDS011;5866;49.094;11.900;2022-08-01T15:06:02;4.38;;;4.18;;
11620;SDS011;5866;49.094;11.900;2022-08-01T15:08:33;3.22;;;3.13;;
11620;SDS011;5866;49.094;11.900;2022-08-01T15:11:01;3.40;;;3.20;;
11620;SDS011;5866;49.094;11.900;2022-08-01T15:13:28;3.10;;;2.90;;
11620;SDS011;5866;49.094;11.900;2022-08-01T15:15:56;2.80;;;2.70;;
11620;SDS011;5866;49.094;11.900;2022-08-01T15:18:25;3.10;;;2.80;;
11620;SDS011;5866;49.094;11.900;2022-08-01T15:20:53;3.20;;;3.00;;